Time;durP1;ratioP1;P1;durP2;ratioP2;P2;SDS_P1;SDS_P2;PMS_P1;PMS_P2;Temp;Humidity;BMP_temperature;BMP_pressure;BME280_temperature;BME280_humidity;BME280_pressure;Samples;Min_cycle;Max_cycle;Signal;HPM_P1;HPM_P2
2021/12/14 00:02:15;;;;;;;11.98;2.22;;;21.90;99.90;;;;;;5017196;28;20022;-69
2021/12/14 00:04:43;;;;;;;7.78;1.77;;;22.00;99.90;;;;;;5017228;28;20018;-69
2021/12/14 00:07:14;;;;;;;7.53;1.50;;;22.00;99.90;;;;;;5011175;28;20040;-69
2021/12/14 00:09:42;;;;;;;12.02;2.55;;;22.20;99.90;;;;;;5014622;28;20034;-69
2021/12/14 00:12:53;;;;;;;13.15;2.63;;;22.30;99.90;;;;;;5014619;28;20092;-69
2021/12/14 00:15:21;;;;;;;10.15;2.13;;;22.40;99.90;;;;;;5013998;28;20085;-69
2021/12/14 00:17:59;;;;;;;8.90;1.85;;;22.90;99.90;;;;;;5013303;28;20029;-70
2021/12/14 00:20:36;;;;;;;9.77;2.20;;;23.40;99.90;;;;;;5015332;28;20116;-70
2021/12/14 00:25:35;;;;;;;10.65;1.88;;;23.70;99.90;;;;;;5010290;28;20037;-69
2021/12/14 00:28:12;;;;;;;8.68;2.05;;;23.60;99.90;;;;;;5026515;28;20527;-69
2021/12/14 00:30:40;;;;;;;16.13;2.85;;;23.10;99.90;;;;;;5003573;28;20080;-70
2021/12/14 00:33:12;;;;;;;12.40;2.60;;;23.10;99.90;;;;;;5013289;28;20044;-70
2021/12/14 00:35:40;;;;;;;12.10;2.33;;;23.20;99.90;;;;;;5015072;28;20028;-70
2021/12/14 00:38:09;;;;;;;15.73;3.42;;;23.10;99.90;;;;;;5014506;28;20033;-70
2021/12/14 00:40:42;;;;;;;9.75;2.28;;;23.10;99.90;;;;;;5013637;28;20022;-70
2021/12/14 00:43:10;;;;;;;11.20;2.77;;;23.50;99.90;;;;;;5013864;28;20029;-70
2021/12/14 00:45:40;;;;;;;15.23;3.42;;;23.60;99.90;;;;;;5014694;28;20313;-69
2021/12/14 00:48:08;;;;;;;12.30;3.17;;;23.70;99.90;;;;;;5013815;28;20681;-69
2021/12/14 00:50:38;;;;;;;12.73;2.75;;;23.90;99.90;;;;;;5014372;28;20125;-68
2021/12/14 00:53:06;;;;;;;10.90;2.13;;;23.90;99.90;;;;;;5010849;28;20421;-69
2021/12/14 00:55:39;;;;;;;13.38;2.38;;;24.10;99.90;;;;;;5032988;28;20030;-69
2021/12/14 00:58:07;;;;;;;13.60;2.53;;;24.10;99.90;;;;;;5043037;28;20513;-70
2021/12/14 01:00:39;;;;;;;9.95;2.83;;;24.20;99.90;;;;;;5015815;28;20034;-69
2021/12/14 01:03:08;;;;;;;12.27;2.45;;;24.30;99.90;;;;;;5007431;28;20040;-71
2021/12/14 01:05:40;;;;;;;15.45;2.75;;;24.70;99.90;;;;;;5012201;28;20116;-70
2021/12/14 01:08:11;;;;;;;9.40;2.53;;;24.70;99.90;;;;;;5028418;28;20037;-69
2021/12/14 01:11:04;;;;;;;12.98;2.40;;;24.40;99.90;;;;;;5015497;28;20124;-68
2021/12/14 01:13:38;;;;;;;11.15;3.47;;;24.40;99.90;;;;;;5015634;28;20093;-68
2021/12/14 01:16:16;;;;;;;22.25;3.55;;;24.50;99.90;;;;;;5013963;28;20041;-68
2021/12/14 01:19:02;;;;;;;9.48;1.95;;;24.70;99.90;;;;;;4997446;28;20041;-68
2021/12/14 01:25:00;;;;;;;9.10;2.45;;;24.90;99.90;;;;;;5012770;28;20041;-69
2021/12/14 01:27:09;;;;;;;13.35;2.38;;;24.20;99.90;;;;;;5012782;28;20038;-69
2021/12/14 01:29:39;;;;;;;10.27;2.38;;;24.40;99.90;;;;;;5014330;28;20062;-69
2021/12/14 01:32:09;;;;;;;9.48;1.80;;;24.50;99.90;;;;;;5012187;28;20095;-68
2021/12/14 01:34:37;;;;;;;6.68;1.60;;;24.70;99.90;;;;;;5014675;28;20026;-68
2021/12/14 01:37:12;;;;;;;9.15;1.95;;;24.60;99.90;;;;;;5012809;28;20029;-69
2021/12/14 01:42:25;;;;;;;8.00;1.42;;;25.00;99.90;;;;;;5016135;28;20032;-68
2021/12/14 01:45:13;;;;;;;11.07;2.35;;;25.00;99.90;;;;;;5023069;28;20061;-68
2021/12/14 01:47:59;;;;;;;11.57;1.90;;;25.00;99.90;;;;;;5099602;27;20428;-67
2021/12/14 01:50:37;;;;;;;5.35;1.23;;;24.90;99.90;;;;;;5085271;28;20029;-68
2021/12/14 01:53:05;;;;;;;14.27;1.77;;;24.90;99.90;;;;;;5079058;28;20048;-67
2021/12/14 01:55:38;;;;;;;8.02;1.40;;;24.40;99.90;;;;;;5085790;28;20028;-67
2021/12/14 01:58:08;;;;;;;12.35;2.28;;;24.60;99.90;;;;;;5081851;28;20096;-67
2021/12/14 02:01:06;;;;;;;10.32;2.22;;;24.90;99.90;;;;;;5076537;28;20029;-68
2021/12/14 02:03:47;;;;;;;8.30;1.30;;;25.00;99.90;;;;;;5075399;28;20029;-67
2021/12/14 02:06:19;;;;;;;5.60;1.17;;;24.70;99.90;;;;;;5079718;28;20025;-68
2021/12/14 02:08:53;;;;;;;7.97;1.55;;;24.60;99.90;;;;;;5077311;28;20071;-67
2021/12/14 02:11:21;;;;;;;6.22;1.08;;;24.40;99.90;;;;;;5077947;28;20071;-67
2021/12/14 02:13:49;;;;;;;5.75;1.30;;;24.80;99.90;;;;;;5075558;28;20033;-67
2021/12/14 02:16:19;;;;;;;10.85;1.38;;;24.80;99.90;;;;;;5076523;28;20060;-67
2021/12/14 02:18:49;;;;;;;7.18;1.27;;;25.30;99.90;;;;;;5071269;28;20032;-67
2021/12/14 02:21:16;;;;;;;5.43;1.23;;;24.60;99.90;;;;;;5076385;28;20099;-67
2021/12/14 02:23:48;;;;;;;8.60;1.42;;;24.80;99.90;;;;;;5074683;28;20032;-67
2021/12/14 02:26:19;;;;;;;6.18;1.30;;;24.70;99.90;;;;;;5077185;28;20051;-67
2021/12/14 02:28:47;;;;;;;5.22;1.23;;;25.10;99.90;;;;;;5078774;28;20575;-66
2021/12/14 02:31:17;;;;;;;5.95;0.90;;;25.10;99.90;;;;;;5071820;28;20025;-67
2021/12/14 02:33:49;;;;;;;8.45;1.55;;;24.90;99.90;;;;;;5069792;28;20029;-67
2021/12/14 02:36:32;;;;;;;7.53;1.02;;;24.90;99.90;;;;;;5074062;28;20032;-67
2021/12/14 02:39:10;;;;;;;7.32;1.40;;;24.90;99.90;;;;;;5073442;28;20032;-67
2021/12/14 02:41:51;;;;;;;4.22;0.88;;;25.10;99.90;;;;;;5075261;28;20149;-66
2021/12/14 02:44:19;;;;;;;5.30;0.90;;;25.00;99.90;;;;;;5067663;28;20036;-67
2021/12/14 02:46:52;;;;;;;5.82;1.13;;;25.30;99.90;;;;;;5072682;28;20099;-66
2021/12/14 02:49:24;;;;;;;6.32;1.10;;;24.80;99.90;;;;;;5074737;28;20031;-67
2021/12/14 02:51:56;;;;;;;6.10;1.08;;;24.70;99.90;;;;;;5091226;28;20040;-66
2021/12/14 02:54:29;;;;;;;6.60;1.40;;;24.90;99.90;;;;;;5063024;28;20056;-67
2021/12/14 02:57:01;;;;;;;3.47;0.82;;;24.60;99.90;;;;;;5065548;28;20017;-67
2021/12/14 02:59:33;;;;;;;6.38;1.23;;;24.50;99.90;;;;;;5057992;28;20477;-67
2021/12/14 03:02:05;;;;;;;8.85;1.33;;;24.40;99.90;;;;;;5061321;28;20021;-67
2021/12/14 03:04:38;;;;;;;7.78;1.40;;;24.30;99.90;;;;;;5047009;28;20029;-67
2021/12/14 03:07:07;;;;;;;5.90;1.58;;;24.40;99.90;;;;;;5055977;28;20054;-66
2021/12/14 03:09:59;;;;;;;6.60;1.25;;;24.20;99.90;;;;;;5061838;28;20037;-67
2021/12/14 03:12:31;;;;;;;5.35;1.20;;;24.20;99.90;;;;;;5063926;28;20025;-67
2021/12/14 03:15:04;;;;;;;4.35;0.80;;;24.30;99.90;;;;;;5061277;28;20057;-67
2021/12/14 03:17:32;;;;;;;5.95;0.90;;;24.10;99.90;;;;;;5064203;28;20029;-67
2021/12/14 03:20:06;;;;;;;6.40;1.50;;;24.40;99.90;;;;;;5065145;28;20086;-67
2021/12/14 03:22:40;;;;;;;7.70;1.20;;;24.60;99.90;;;;;;5055568;28;20075;-67
2021/12/14 03:25:09;;;;;;;6.38;1.63;;;24.30;99.90;;;;;;5062343;28;20039;-67
2021/12/14 03:27:42;;;;;;;7.45;1.15;;;24.20;99.90;;;;;;5060467;28;20047;-67
2021/12/14 03:30:31;;;;;;;6.43;1.70;;;24.20;99.90;;;;;;5046024;28;20461;-67
2021/12/14 03:33:04;;;;;;;7.65;1.35;;;24.10;99.90;;;;;;5045658;28;20049;-67
2021/12/14 03:36:08;;;;;;;5.25;1.35;;;24.40;99.90;;;;;;5059201;28;20045;-67
2021/12/14 03:38:43;;;;;;;7.20;1.13;;;24.30;99.90;;;;;;5045488;28;20530;-66
2021/12/14 03:41:15;;;;;;;3.35;0.88;;;24.50;99.90;;;;;;5063050;28;20025;-66
2021/12/14 03:43:51;;;;;;;22.40;2.92;;;24.30;99.90;;;;;;5060838;28;20024;-66
2021/12/14 03:46:18;;;;;;;8.68;1.55;;;24.20;99.90;;;;;;5059143;28;20048;-66
2021/12/14 03:48:46;;;;;;;7.28;1.08;;;24.20;99.90;;;;;;5061868;28;20028;-67
2021/12/14 03:51:13;;;;;;;13.27;2.10;;;24.30;99.90;;;;;;5065347;28;20036;-66
2021/12/14 03:53:40;;;;;;;7.10;1.40;;;24.10;99.90;;;;;;5062165;28;20029;-67
2021/12/14 03:56:09;;;;;;;7.80;1.33;;;24.10;99.90;;;;;;5063541;28;20035;-66
2021/12/14 03:58:40;;;;;;;7.30;1.20;;;24.00;99.90;;;;;;5050510;28;20103;-66
2021/12/14 04:01:15;;;;;;;9.23;1.40;;;23.80;99.90;;;;;;5053852;28;20021;-67
2021/12/14 04:03:44;;;;;;;6.35;1.67;;;23.80;99.90;;;;;;5059855;28;20037;-67
2021/12/14 04:06:13;;;;;;;7.28;1.27;;;23.80;99.90;;;;;;5062731;28;20118;-66
2021/12/14 04:08:41;;;;;;;5.65;0.80;;;24.10;99.90;;;;;;5058011;28;20027;-67
2021/12/14 04:11:10;;;;;;;5.38;1.15;;;24.20;99.90;;;;;;5059947;28;20053;-67
2021/12/14 04:13:41;;;;;;;5.10;1.48;;;24.20;99.90;;;;;;5057945;28;20408;-66
2021/12/14 04:16:10;;;;;;;5.43;1.10;;;23.70;99.90;;;;;;5062994;28;20574;-66
2021/12/14 04:18:38;;;;;;;10.02;0.95;;;23.70;99.90;;;;;;5059994;28;20025;-67
2021/12/14 04:21:06;;;;;;;4.53;1.35;;;23.60;99.90;;;;;;5061879;28;20029;-66
2021/12/14 04:23:42;;;;;;;8.00;1.88;;;23.80;99.90;;;;;;5058175;28;20487;-67
2021/12/14 04:26:12;;;;;;;6.90;1.35;;;23.40;99.90;;;;;;5059452;28;20052;-67
2021/12/14 04:28:47;;;;;;;11.18;1.52;;;23.50;99.90;;;;;;5058308;28;20159;-66
2021/12/14 04:31:15;;;;;;;6.35;1.23;;;23.40;99.90;;;;;;5059280;28;20031;-67
2021/12/14 04:33:46;;;;;;;4.63;1.02;;;23.50;99.90;;;;;;5061620;28;20445;-67
2021/12/14 04:36:19;;;;;;;8.98;1.63;;;23.50;99.90;;;;;;5059911;28;20021;-67
2021/12/14 04:38:52;;;;;;;10.45;1.45;;;23.70;99.90;;;;;;5045373;28;20041;-67
2021/12/14 04:52:28;;;;;;;6.68;1.08;;;23.50;99.90;;;;;;5057199;28;20445;-66
2021/12/14 04:55:07;;;;;;;11.02;1.25;;;23.40;99.90;;;;;;5059033;28;20029;-67
2021/12/14 04:57:45;;;;;;;11.00;1.27;;;23.50;99.90;;;;;;5058858;28;20029;-66
2021/12/14 05:00:25;;;;;;;13.05;2.00;;;23.70;99.90;;;;;;5056387;28;20533;-66
2021/12/14 05:02:56;;;;;;;6.22;1.33;;;23.60;99.90;;;;;;5056511;28;20088;-67
2021/12/14 05:05:28;;;;;;;6.00;1.83;;;23.30;99.90;;;;;;5046893;28;20081;-66
2021/12/14 05:10:59;;;;;;;11.88;2.10;;;23.30;99.90;;;;;;5056101;28;20052;-67
2021/12/14 05:13:36;;;;;;;7.70;1.58;;;23.40;99.90;;;;;;5055419;28;20048;-67
2021/12/14 05:16:04;;;;;;;8.60;1.65;;;23.40;99.90;;;;;;5057361;28;20084;-67
2021/12/14 05:18:31;;;;;;;8.18;1.88;;;23.10;99.90;;;;;;5039935;28;20018;-67
2021/12/14 05:20:59;;;;;;;5.10;1.00;;;23.30;99.90;;;;;;5041352;28;20041;-67
2021/12/14 05:23:34;;;;;;;8.30;1.65;;;23.30;99.90;;;;;;5047153;28;20142;-67
2021/12/14 05:26:04;;;;;;;14.98;1.38;;;23.30;99.90;;;;;;5060248;28;20033;-67
2021/12/14 05:28:33;;;;;;;9.50;2.00;;;23.40;99.90;;;;;;5058630;28;20036;-66
2021/12/14 05:31:01;;;;;;;8.93;1.33;;;23.60;99.90;;;;;;5061279;28;20033;-66
2021/12/14 05:33:35;;;;;;;8.93;0.95;;;23.60;99.90;;;;;;5053156;28;20029;-67
2021/12/14 05:36:09;;;;;;;7.47;1.10;;;23.80;99.90;;;;;;5046254;28;20366;-67
2021/12/14 05:43:06;;;;;;;5.65;1.02;;;23.60;99.90;;;;;;5056537;28;20473;-67
2021/12/14 05:44:04;;;;;;;7.63;1.50;;;23.90;99.90;;;;;;5054517;28;20082;-67
2021/12/14 05:46:31;;;;;;;8.77;1.40;;;23.80;99.90;;;;;;5050517;28;20099;-67
2021/12/14 05:49:03;;;;;;;9.18;1.35;;;23.50;99.90;;;;;;5049852;28;20042;-68
2021/12/14 05:51:31;;;;;;;8.50;1.42;;;23.10;99.90;;;;;;5043622;28;20021;-67
2021/12/14 05:53:59;;;;;;;6.47;1.73;;;23.20;99.90;;;;;;5055052;28;20540;-67
2021/12/14 05:56:28;;;;;;;8.95;1.10;;;23.30;99.90;;;;;;5056357;28;20036;-67
2021/12/14 05:58:57;;;;;;;8.13;1.42;;;23.30;99.90;;;;;;5054901;28;20022;-67
2021/12/14 06:01:28;;;;;;;8.80;1.30;;;23.50;99.90;;;;;;5056509;28;20126;-67
2021/12/14 06:04:01;;;;;;;6.03;1.15;;;23.60;99.90;;;;;;5051414;28;20043;-67
2021/12/14 06:06:41;;;;;;;8.70;1.88;;;23.60;99.90;;;;;;5056186;28;20370;-67
2021/12/14 06:09:18;;;;;;;10.27;1.30;;;23.60;99.90;;;;;;5054618;28;20023;-67
2021/12/14 06:11:49;;;;;;;7.40;1.02;;;23.70;99.90;;;;;;5057222;28;20021;-67
2021/12/14 06:14:19;;;;;;;6.75;1.20;;;23.80;99.90;;;;;;5055395;28;20049;-67
2021/12/14 06:16:49;;;;;;;8.98;1.55;;;23.50;99.90;;;;;;5055843;28;20482;-67
2021/12/14 06:19:28;;;;;;;13.27;1.80;;;23.70;99.90;;;;;;5051302;28;20090;-67
2021/12/14 06:22:06;;;;;;;8.27;1.73;;;23.70;99.90;;;;;;5053612;28;20028;-67
2021/12/14 06:24:36;;;;;;;6.70;1.15;;;23.90;99.90;;;;;;5036305;28;20033;-67
2021/12/14 06:27:08;;;;;;;8.60;1.73;;;23.90;99.90;;;;;;5036551;28;21356;-67
2021/12/14 06:29:43;;;;;;;10.90;1.55;;;24.20;99.90;;;;;;5049586;28;20082;-67
2021/12/14 06:32:15;;;;;;;6.22;1.40;;;24.40;99.90;;;;;;5035380;28;20040;-67
2021/12/14 06:34:49;;;;;;;8.48;1.67;;;24.40;99.90;;;;;;5056938;28;20508;-67
2021/12/14 06:40:29;;;;;;;10.82;1.48;;;24.60;99.90;;;;;;5019822;28;20049;-68
2021/12/14 06:43:01;;;;;;;7.88;1.13;;;24.50;99.90;;;;;;5045097;28;20017;-68
2021/12/14 06:45:43;;;;;;;9.18;1.42;;;25.40;99.90;;;;;;5055367;28;20028;-68
2021/12/14 06:48:20;;;;;;;7.78;1.30;;;25.00;99.90;;;;;;5055113;28;20029;-68
2021/12/14 06:50:52;;;;;;;8.13;1.67;;;23.90;99.90;;;;;;5054326;28;20079;-68
2021/12/14 06:53:21;;;;;;;7.20;1.55;;;23.30;99.90;;;;;;5053173;28;20037;-69
2021/12/14 06:55:55;;;;;;;7.32;1.38;;;22.70;99.90;;;;;;5055458;28;20035;-68
2021/12/14 06:58:26;;;;;;;9.77;1.30;;;22.50;99.90;;;;;;5054438;28;20024;-68
2021/12/14 07:01:10;;;;;;;6.00;1.70;;;22.50;99.90;;;;;;5053751;28;20115;-68
2021/12/14 07:03:49;;;;;;;9.60;1.40;;;22.30;99.90;;;;;;5045820;28;20033;-69
2021/12/14 07:06:30;;;;;;;8.82;1.38;;;23.00;99.90;;;;;;5053067;28;20033;-69
2021/12/14 07:09:06;;;;;;;8.40;1.17;;;22.60;99.90;;;;;;5054337;28;20091;-69
2021/12/14 07:11:35;;;;;;;5.10;0.93;;;22.80;99.90;;;;;;5056923;28;20017;-69
2021/12/14 07:14:22;;;;;;;8.77;1.50;;;23.00;99.90;;;;;;5054963;28;20059;-68
2021/12/14 07:16:50;;;;;;;8.93;1.45;;;22.70;99.90;;;;;;5050230;28;20040;-68
2021/12/14 07:19:17;;;;;;;9.43;1.67;;;23.40;99.90;;;;;;5053404;28;20477;-68
2021/12/14 07:21:46;;;;;;;8.35;1.40;;;23.90;99.90;;;;;;5054859;28;20452;-69
2021/12/14 07:24:22;;;;;;;13.98;2.05;;;23.40;99.90;;;;;;5051657;28;20032;-69
2021/12/14 07:27:12;;;;;;;6.85;1.58;;;23.10;99.90;;;;;;5035840;28;20143;-68
2021/12/14 07:29:40;;;;;;;7.78;1.40;;;23.10;99.90;;;;;;5028205;28;20133;-68
2021/12/14 07:32:07;;;;;;;11.35;1.70;;;22.70;99.90;;;;;;5035115;28;20037;-68
2021/12/14 07:34:35;;;;;;;8.30;1.40;;;22.20;99.90;;;;;;5051718;28;20017;-69
2021/12/14 07:37:02;;;;;;;6.47;1.17;;;22.40;99.90;;;;;;5041394;28;20171;-68
2021/12/14 07:39:30;;;;;;;10.32;1.63;;;22.90;99.90;;;;;;5034844;28;20014;-69
2021/12/14 07:42:00;;;;;;;9.10;1.50;;;23.40;99.90;;;;;;5034672;28;20030;-68
2021/12/14 07:44:34;;;;;;;8.45;2.45;;;23.30;99.90;;;;;;5033578;28;20485;-69
2021/12/14 07:47:08;;;;;;;5.82;1.33;;;23.60;99.90;;;;;;5033689;28;20049;-68
2021/12/14 07:49:54;;;;;;;8.63;1.35;;;24.40;99.90;;;;;;5035621;28;20029;-68
2021/12/14 07:52:28;;;;;;;10.45;2.22;;;23.80;99.90;;;;;;5033166;28;20034;-68
2021/12/14 07:55:26;;;;;;;9.85;1.80;;;22.50;99.90;;;;;;5032818;28;20030;-68
2021/12/14 07:57:53;;;;;;;6.35;1.77;;;22.30;99.90;;;;;;5026237;28;20367;-69
2021/12/14 08:00:29;;;;;;;8.27;1.67;;;22.20;99.90;;;;;;5034512;28;20017;-68
2021/12/14 08:03:00;;;;;;;10.18;1.48;;;22.00;99.90;;;;;;5032865;28;20457;-68
2021/12/14 08:05:35;;;;;;;15.48;2.30;;;21.70;99.90;;;;;;5043005;28;20063;-69
2021/12/14 08:08:16;;;;;;;11.93;2.63;;;21.50;99.90;;;;;;5059087;28;20401;-68
2021/12/14 08:11:08;;;;;;;10.38;1.63;;;21.60;99.90;;;;;;5058243;28;20028;-67
2021/12/14 08:13:44;;;;;;;9.18;1.55;;;21.30;99.90;;;;;;5054638;28;20037;-67
2021/12/14 08:16:12;;;;;;;9.63;1.67;;;21.20;99.90;;;;;;5068127;28;20092;-68
2021/12/14 08:18:40;;;;;;;10.68;1.80;;;21.10;99.90;;;;;;5070018;28;20028;-68
2021/12/14 08:21:21;;;;;;;8.80;1.48;;;21.20;99.90;;;;;;5052360;28;20089;-68
2021/12/14 08:23:57;;;;;;;14.70;2.22;;;21.00;99.90;;;;;;5054677;28;20573;-67
2021/12/14 08:26:40;;;;;;;13.23;1.65;;;21.00;99.90;;;;;;5073649;28;20025;-68
2021/12/14 08:29:17;;;;;;;7.57;1.30;;;20.80;99.90;;;;;;5073272;28;20025;-67
2021/12/14 08:31:47;;;;;;;8.43;2.20;;;20.70;99.90;;;;;;5058475;28;20021;-66
2021/12/14 08:34:26;;;;;;;9.23;1.17;;;20.60;99.90;;;;;;5057442;28;20030;-68
2021/12/14 08:37:01;;;;;;;7.20;1.58;;;20.60;99.90;;;;;;5069046;28;20017;-68
2021/12/14 08:39:32;;;;;;;12.52;2.00;;;20.60;99.90;;;;;;5074667;28;20021;-67
2021/12/14 08:42:22;;;;;;;7.30;1.52;;;20.40;99.90;;;;;;5069646;28;20036;-68
2021/12/14 08:44:58;;;;;;;13.75;2.25;;;20.50;99.90;;;;;;5069647;28;20037;-67
2021/12/14 08:47:39;;;;;;;9.00;1.60;;;20.50;99.90;;;;;;5071816;28;20135;-68
2021/12/14 08:50:12;;;;;;;8.38;1.20;;;20.50;99.90;;;;;;5070527;28;20100;-68
2021/12/14 08:52:41;;;;;;;11.18;2.15;;;20.40;99.90;;;;;;5073128;28;20017;-67
2021/12/14 08:55:12;;;;;;;16.20;2.33;;;20.30;99.90;;;;;;5085258;28;20059;-68
2021/12/14 08:57:41;;;;;;;15.85;2.63;;;20.20;99.90;;;;;;5077676;28;20075;-67
2021/12/14 09:00:23;;;;;;;14.35;2.53;;;20.20;99.90;;;;;;5068678;28;20001;-67
2021/12/14 09:02:53;;;;;;;6.05;1.80;;;20.20;99.90;;;;;;5054729;28;20034;-68
2021/12/14 09:05:29;;;;;;;8.98;1.55;;;20.00;99.90;;;;;;5056619;28;20048;-68
2021/12/14 09:07:56;;;;;;;15.32;2.53;;;19.90;99.90;;;;;;5057601;28;20033;-68
2021/12/14 09:10:28;;;;;;;9.15;2.15;;;20.00;99.90;;;;;;5068773;28;20033;-68
2021/12/14 09:12:59;;;;;;;11.40;2.22;;;20.00;99.90;;;;;;5066271;28;20021;-68
2021/12/14 09:15:41;;;;;;;10.40;2.17;;;20.00;99.90;;;;;;5056796;28;20027;-69
2021/12/14 09:18:09;;;;;;;8.95;1.27;;;20.00;99.90;;;;;;5071518;28;20025;-68
2021/12/14 09:20:42;;;;;;;15.38;1.92;;;20.00;99.90;;;;;;5075556;28;20067;-68
2021/12/14 09:23:17;;;;;;;6.47;1.60;;;20.00;99.90;;;;;;5074359;28;20016;-68
2021/12/14 09:25:43;;;;;;;;;;;20.00;99.90;;;;;;5056206;28;20030;-68
2021/12/14 09:28:12;;;;;;;8.98;1.50;;;19.90;99.90;;;;;;5050703;28;19956;-68
2021/12/14 09:30:56;;;;;;;7.53;1.38;;;19.90;99.90;;;;;;5052547;28;20030;-68
2021/12/14 09:33:26;;;;;;;13.23;1.77;;;19.90;99.90;;;;;;5068107;28;20021;-68
2021/12/14 09:35:56;;;;;;;10.70;1.73;;;19.90;99.90;;;;;;5062596;28;20033;-69
2021/12/14 09:38:32;;;;;;;8.55;1.60;;;19.90;99.90;;;;;;5065089;28;20033;-68
2021/12/14 09:41:06;;;;;;;8.32;1.52;;;19.80;99.90;;;;;;5050068;28;20037;-68
2021/12/14 09:43:34;;;;;;;8.63;2.10;;;19.80;99.90;;;;;;5050407;28;20075;-68
2021/12/14 09:46:04;;;;;;;16.05;2.50;;;19.70;99.90;;;;;;5048167;28;20100;-68
2021/12/14 09:48:47;;;;;;;9.90;2.10;;;19.70;99.90;;;;;;5090591;28;20009;-68
2021/12/14 09:51:18;;;;;;;11.52;1.63;;;19.70;99.90;;;;;;5054317;28;20029;-68
2021/12/14 09:53:49;;;;;;;9.07;1.85;;;19.70;99.90;;;;;;5051374;28;20056;-68
2021/12/14 09:56:18;;;;;;;7.72;1.67;;;19.80;99.90;;;;;;5050466;28;20016;-66
2021/12/14 09:58:49;;;;;;;6.70;1.55;;;19.70;99.90;;;;;;5056646;28;20080;-66
2021/12/14 10:01:32;;;;;;;10.90;2.38;;;19.70;99.90;;;;;;5057518;28;20036;-66
2021/12/14 10:04:06;;;;;;;11.57;2.08;;;19.60;99.90;;;;;;5057453;28;20030;-67
2021/12/14 10:06:34;;;;;;;8.80;2.28;;;19.70;99.90;;;;;;5063381;28;20060;-66
2021/12/14 10:09:14;;;;;;;8.25;1.75;;;19.60;99.90;;;;;;5078550;28;20035;-67
2021/12/14 10:14:28;;;;;;;14.32;2.50;;;19.50;99.90;;;;;;5081546;28;20073;-66
2021/12/14 10:16:56;;;;;;;11.32;2.35;;;19.50;99.90;;;;;;5081423;28;20029;-67
2021/12/14 10:19:27;;;;;;;11.60;2.10;;;19.50;99.90;;;;;;5076149;28;20009;-67
2021/12/14 10:22:17;;;;;;;6.57;1.85;;;19.50;99.90;;;;;;5081484;28;20017;-67
2021/12/14 10:24:44;;;;;;;12.95;2.58;;;19.40;99.90;;;;;;5080764;28;20005;-66
2021/12/14 10:27:16;;;;;;;13.32;2.58;;;19.50;99.90;;;;;;5081111;28;20017;-67
2021/12/14 10:29:45;;;;;;;12.15;2.17;;;19.40;99.90;;;;;;5081263;28;20013;-68
2021/12/14 10:32:20;;;;;;;14.48;2.67;;;19.40;99.90;;;;;;5081023;28;20005;-67
2021/12/14 10:34:52;;;;;;;10.10;2.10;;;19.40;99.90;;;;;;5080982;28;20013;-67
2021/12/14 10:37:53;;;;;;;9.02;2.00;;;19.30;99.90;;;;;;5080876;28;20021;-66
2021/12/14 10:43:23;;;;;;;12.90;1.80;;;19.40;99.90;;;;;;5080898;28;20036;-67
2021/12/14 10:46:00;;;;;;;7.30;1.98;;;19.40;99.90;;;;;;5079849;28;20049;-66
2021/12/14 10:48:36;;;;;;;13.10;3.85;;;19.40;99.90;;;;;;5079928;28;20033;-67
2021/12/14 10:51:07;;;;;;;12.75;2.33;;;19.30;99.90;;;;;;5079790;28;20013;-67
2021/12/14 10:53:36;;;;;;;11.30;1.50;;;19.30;99.90;;;;;;5079574;28;20043;-67
2021/12/14 10:56:22;;;;;;;11.65;1.83;;;19.30;99.90;;;;;;5079515;28;20076;-67
2021/12/14 10:58:55;;;;;;;12.43;2.80;;;19.30;99.90;;;;;;5078644;28;20027;-67
2021/12/14 11:01:30;;;;;;;10.82;2.20;;;19.20;99.90;;;;;;5074925;28;20024;-67
2021/12/14 11:04:13;;;;;;;10.02;2.05;;;19.10;99.90;;;;;;5058230;28;20017;-67
2021/12/14 11:06:47;;;;;;;15.48;2.60;;;19.00;99.90;;;;;;5075881;28;20037;-67
2021/12/14 11:09:47;;;;;;;11.38;2.30;;;19.00;99.90;;;;;;5074051;28;20002;-68
2021/12/14 11:12:27;;;;;;;10.40;2.13;;;19.00;99.90;;;;;;5080411;28;20029;-67
2021/12/14 11:15:03;;;;;;;14.05;1.92;;;19.00;99.90;;;;;;5074028;28;20029;-67
2021/12/14 11:20:52;;;;;;;11.88;2.10;;;19.10;99.90;;;;;;5080046;28;20024;-67
2021/12/14 11:23:33;;;;;;;9.27;2.30;;;19.00;99.90;;;;;;5063415;28;20068;-67
2021/12/14 11:26:15;;;;;;;11.52;1.73;;;19.00;99.90;;;;;;5079956;28;20029;-67
2021/12/14 11:28:46;;;;;;;9.82;1.80;;;19.00;99.90;;;;;;5079815;28;20068;-68
2021/12/14 11:31:28;;;;;;;12.00;2.33;;;18.90;99.90;;;;;;5079711;28;20021;-67
2021/12/14 11:34:07;;;;;;;11.27;2.47;;;18.90;99.90;;;;;;5079449;28;20036;-67
2021/12/14 11:36:55;;;;;;;9.65;2.03;;;18.90;99.90;;;;;;5079241;28;20013;-67
2021/12/14 11:39:29;;;;;;;8.05;2.40;;;18.90;99.90;;;;;;5080021;28;20021;-68
2021/12/14 11:42:00;;;;;;;12.75;2.33;;;18.90;99.90;;;;;;5079609;28;20021;-67
2021/12/14 11:44:47;;;;;;;8.95;2.08;;;18.80;99.90;;;;;;5079411;28;20055;-67
2021/12/14 11:50:27;;;;;;;7.75;1.70;;;18.80;99.90;;;;;;5079116;28;20064;-67
2021/12/14 11:53:06;;;;;;;10.48;2.30;;;18.80;99.90;;;;;;5079143;28;20025;-68
2021/12/14 11:55:58;;;;;;;8.45;2.08;;;18.80;99.90;;;;;;5076231;28;20010;-68
2021/12/14 11:58:55;;;;;;;10.27;2.28;;;18.80;99.90;;;;;;5078742;28;20029;-68
2021/12/14 12:01:28;;;;;;;8.90;2.10;;;18.70;99.90;;;;;;5078240;28;20025;-68
2021/12/14 12:04:11;;;;;;;9.90;2.47;;;18.70;99.90;;;;;;5078125;28;20013;-67
2021/12/14 12:06:46;;;;;;;9.07;2.43;;;18.70;99.90;;;;;;5078210;28;20036;-67
2021/12/14 12:09:35;;;;;;;10.68;1.67;;;18.70;99.90;;;;;;5065135;28;20029;-67
2021/12/14 12:12:06;;;;;;;9.88;1.67;;;18.60;99.90;;;;;;5098530;28;20104;-67
2021/12/14 12:14:51;;;;;;;10.77;2.33;;;18.60;99.90;;;;;;5098813;28;20129;-67
2021/12/14 12:17:21;;;;;;;11.20;1.92;;;18.60;99.90;;;;;;5081277;28;20009;-67
2021/12/14 12:20:05;;;;;;;12.55;2.05;;;18.60;99.90;;;;;;5078249;28;20013;-67
2021/12/14 12:22:47;;;;;;;8.38;1.60;;;18.60;99.90;;;;;;5078784;28;20060;-67
2021/12/14 12:25:23;;;;;;;7.90;1.67;;;18.60;99.90;;;;;;5078479;28;20017;-67
2021/12/14 12:28:01;;;;;;;11.45;2.15;;;18.60;99.90;;;;;;5078507;28;20029;-67
2021/12/14 12:30:48;;;;;;;9.68;2.10;;;18.60;99.90;;;;;;5077648;28;20085;-67
2021/12/14 12:33:52;;;;;;;7.78;1.67;;;18.50;99.90;;;;;;5077453;28;20009;-67
2021/12/14 12:36:35;;;;;;;9.23;1.52;;;18.50;99.90;;;;;;5057610;28;20021;-67
2021/12/14 12:39:07;;;;;;;7.80;1.90;;;18.50;99.90;;;;;;5077701;28;20025;-68
2021/12/14 12:41:49;;;;;;;14.70;2.03;;;18.50;99.90;;;;;;5078421;28;20001;-67
2021/12/14 12:44:27;;;;;;;9.95;1.90;;;18.50;99.90;;;;;;5077835;28;20013;-67
2021/12/14 12:47:01;;;;;;;7.13;1.92;;;18.50;99.90;;;;;;5078366;28;20053;-66
2021/12/14 12:49:32;;;;;;;;;;;18.40;99.90;;;;;;5077071;28;20032;-67
2021/12/14 12:52:12;;;;;;;10.45;1.85;;;18.40;99.90;;;;;;5078035;28;19893;-67
2021/12/14 12:54:49;;;;;;;10.02;2.13;;;18.40;99.90;;;;;;5078571;28;20016;-67
2021/12/14 12:57:37;;;;;;;10.52;2.60;;;18.40;99.90;;;;;;5078196;28;20068;-67
2021/12/14 13:00:11;;;;;;;10.07;2.53;;;18.40;99.90;;;;;;5077465;28;20024;-67
2021/12/14 13:02:45;;;;;;;10.18;1.83;;;18.30;99.90;;;;;;5073678;28;20017;-67
2021/12/14 13:05:30;;;;;;;10.57;1.73;;;18.30;99.90;;;;;;5067910;28;20048;-67
2021/12/14 13:08:24;;;;;;;13.82;3.00;;;18.30;99.90;;;;;;5077922;28;20278;-67
2021/12/14 13:11:11;;;;;;;11.45;2.45;;;18.30;99.90;;;;;;5092048;28;20013;-67
2021/12/14 13:13:45;;;;;;;9.88;1.92;;;18.30;99.90;;;;;;5089187;28;20037;-66
2021/12/14 13:16:23;;;;;;;11.68;2.25;;;18.20;99.90;;;;;;5077904;28;20071;-67
2021/12/14 13:19:04;;;;;;;10.73;2.38;;;18.20;99.90;;;;;;5077638;28;20017;-67
2021/12/14 13:21:40;;;;;;;8.38;1.70;;;18.30;99.90;;;;;;5077732;28;20033;-67
2021/12/14 13:24:20;;;;;;;10.65;2.22;;;18.30;99.90;;;;;;5077357;28;20033;-67
2021/12/14 13:27:24;;;;;;;11.98;2.20;;;18.30;99.90;;;;;;5077726;28;20033;-67
2021/12/14 13:30:02;;;;;;;16.43;2.77;;;18.30;99.90;;;;;;5076612;28;20036;-67
2021/12/14 13:32:32;;;;;;;11.50;3.00;;;18.30;99.90;;;;;;5076704;28;20032;-67
2021/12/14 13:35:02;;;;;;;11.40;2.08;;;18.20;99.90;;;;;;5077493;28;20097;-67
2021/12/14 13:37:50;;;;;;;6.70;2.15;;;18.30;99.90;;;;;;5076972;28;20009;-68
2021/12/14 13:40:34;;;;;;;7.80;2.28;;;18.20;99.90;;;;;;5077378;28;20071;-67
2021/12/14 13:43:20;;;;;;;9.25;1.40;;;18.30;99.90;;;;;;5075540;28;20009;-67
2021/12/14 13:46:07;;;;;;;8.43;1.60;;;18.30;99.90;;;;;;5075695;28;20041;-67
2021/12/14 13:48:38;;;;;;;7.10;1.70;;;18.30;99.90;;;;;;5076941;28;20055;-67
2021/12/14 13:51:18;;;;;;;7.40;1.60;;;18.20;99.90;;;;;;5077212;28;20071;-68
2021/12/14 13:53:48;;;;;;;15.30;2.25;;;18.20;99.90;;;;;;5073487;28;20796;-67
2021/12/14 13:56:25;;;;;;;10.00;2.03;;;18.10;99.90;;;;;;5061478;28;20036;-67
2021/12/14 13:58:54;;;;;;;14.18;2.92;;;18.10;99.90;;;;;;5076487;28;20005;-67
2021/12/14 14:01:36;;;;;;;9.30;2.13;;;18.20;99.90;;;;;;5076648;28;20005;-67
2021/12/14 14:04:08;;;;;;;6.07;1.60;;;18.20;99.90;;;;;;5077050;28;20036;-68